SBOSBO LBA / EGNM
Speedbird OnlineSpeedbird Online LBA / EGNM

Leeds Bradford Airport
09:12 10.5°C

Location Leeds, United Kingdom
Latitude: 53.86589813232422
Longitude: -1.6605700254440308
Web Airport Website | Wikipedia
Altitude 208 Meter / 681 Feet
Distance 288 KM / 179 Miles
from London.
Time Zone UTC +1 hours (Europe/London)
Codes IATA: LBA
ICAO: EGNM
Runways
RunwayLength (m)Surface
142250Concrete
322250Concrete
Radio
TypeDescriptionFrequency
APPAPP123.38
APP134.58
ATISATIS118.025
DEL121.805
ILS Rw 32/14110.9
TWRTWR120.305
Live ATC
METAR EGNM 060750Z 22011KT 190V250 9999 SCT024 10/07 Q1020
TAF TAF EGNM 060454Z 0606/0706 23012KT 9999 SCT025 PROB40 TEMPO 0606/0620 24015G25KT BKN010 TEMPO 0610/0618 6000 -RADZ PROB40 TEMPO 0610/0616 4000 SHRA PROB40 TEMPO 0620/0706 24020G30KT PROB40 TEMPO 0700/0706 7000 SHRA
Weather As Of 06 Oct 2022 09:12
Description Scattered clouds
Wind 20 km/h from South-West (220°)
Cloud Cover 40%
Precipitation Rain: none, Snow: none
Sunrise 07:17
Sunset 18:32


© 2017-2022 Speedbird Online